Time;durP1;ratioP1;P1;durP2;ratioP2;P2;SDS_P1;SDS_P2;PMS_P1;PMS_P2;Temp;Humidity;BMP_temperature;BMP_pressure;BME280_temperature;BME280_humidity;BME280_pressure;Samples;Min_cycle;Max_cycle;Signal;HPM_P1;HPM_P2
2021/05/20 00:01:35;;;;;;;5.50;3.80;;;7.60;99.90;;;;;;5041990;28;20171;-61
2021/05/20 00:04:01;;;;;;;4.57;3.70;;;7.60;99.90;;;;;;5036822;28;20187;-61
2021/05/20 00:06:27;;;;;;;4.93;3.77;;;7.60;99.90;;;;;;5021071;28;20520;-61
2021/05/20 00:08:53;;;;;;;5.37;3.90;;;7.60;99.90;;;;;;5038309;28;20286;-60
2021/05/20 00:11:19;;;;;;;5.97;4.30;;;7.60;99.90;;;;;;5022607;28;20478;-61
2021/05/20 00:13:44;;;;;;;7.73;4.03;;;7.50;99.90;;;;;;5038642;28;20183;-60
2021/05/20 00:16:10;;;;;;;4.83;3.83;;;7.50;99.90;;;;;;5038591;28;20199;-60
2021/05/20 00:18:36;;;;;;;5.00;4.30;;;7.50;99.90;;;;;;5038233;28;20648;-61
2021/05/20 00:21:02;;;;;;;4.63;3.90;;;7.50;99.90;;;;;;5022989;28;20175;-62
2021/05/20 00:23:28;;;;;;;3.77;3.43;;;7.50;99.90;;;;;;5038605;28;20867;-60
2021/05/20 00:25:53;;;;;;;6.90;4.23;;;7.50;99.90;;;;;;5020015;28;20206;-61
2021/05/20 00:28:19;;;;;;;4.83;4.33;;;7.40;99.90;;;;;;5037053;28;20184;-60
2021/05/20 00:30:45;;;;;;;4.93;4.10;;;7.40;99.90;;;;;;5021660;28;20179;-60
2021/05/20 00:33:10;;;;;;;8.10;3.90;;;7.40;99.90;;;;;;5036057;28;20214;-59
2021/05/20 00:35:36;;;;;;;4.90;4.10;;;7.30;99.90;;;;;;5036171;28;20216;-60
2021/05/20 00:38:02;;;;;;;12.73;4.77;;;7.30;99.90;;;;;;5021888;28;20203;-60
2021/05/20 00:40:27;;;;;;;8.67;4.20;;;7.30;99.90;;;;;;5040953;28;20179;-61
2021/05/20 00:42:53;;;;;;;5.53;3.93;;;7.20;99.90;;;;;;5038784;28;20262;-60
2021/05/20 00:45:19;;;;;;;4.40;4.00;;;7.20;99.90;;;;;;5036516;28;20198;-59
2021/05/20 00:47:44;;;;;;;6.00;4.67;;;7.20;99.90;;;;;;5037610;28;20298;-60
2021/05/20 00:50:11;;;;;;;5.10;4.57;;;7.10;99.90;;;;;;5039245;28;20706;-60
2021/05/20 00:52:38;;;;;;;6.67;4.60;;;7.10;99.90;;;;;;5037372;28;20266;-60
2021/05/20 00:55:05;;;;;;;5.70;4.53;;;7.10;99.90;;;;;;5036504;28;20453;-60
2021/05/20 00:57:31;;;;;;;8.10;4.40;;;7.10;99.90;;;;;;5036737;28;20490;-60
2021/05/20 01:00:09;;;;;;;4.50;4.00;;;7.00;99.90;;;;;;5035777;28;20437;-59
2021/05/20 01:02:39;;;;;;;4.60;4.03;;;7.00;99.90;;;;;;5035326;28;20171;-60
2021/05/20 01:05:07;;;;;;;6.03;4.80;;;7.00;99.90;;;;;;5037709;28;21787;-59
2021/05/20 01:07:34;;;;;;;6.10;4.13;;;7.00;99.90;;;;;;5038026;28;20445;-60
2021/05/20 01:09:59;;;;;;;5.67;4.20;;;7.00;99.90;;;;;;5035644;28;20882;-60
2021/05/20 01:12:26;;;;;;;4.73;3.87;;;7.00;99.90;;;;;;5037778;28;20440;-60
2021/05/20 01:14:51;;;;;;;6.80;4.10;;;6.90;99.90;;;;;;5036498;28;20261;-60
2021/05/20 01:17:17;;;;;;;5.93;4.33;;;6.90;99.90;;;;;;5037015;28;20461;-60
2021/05/20 01:19:46;;;;;;;6.40;4.10;;;6.90;99.90;;;;;;5034371;28;20208;-60
2021/05/20 01:22:17;;;;;;;6.13;4.23;;;6.90;99.90;;;;;;5035982;28;20190;-60
2021/05/20 01:24:44;;;;;;;4.77;3.97;;;6.90;99.90;;;;;;5040484;28;20480;-59
2021/05/20 01:27:11;;;;;;;5.40;4.00;;;6.90;99.90;;;;;;5020123;28;20806;-60
2021/05/20 01:29:39;;;;;;;5.57;4.27;;;6.90;99.90;;;;;;5041606;28;20436;-60
2021/05/20 01:32:06;;;;;;;8.07;3.90;;;6.90;99.90;;;;;;5039180;28;20434;-59
2021/05/20 01:34:32;;;;;;;5.13;4.10;;;6.90;99.90;;;;;;5037928;28;20524;-59
2021/05/20 01:37:06;;;;;;;9.63;3.90;;;6.90;99.90;;;;;;5023070;28;20535;-61
2021/05/20 01:39:32;;;;;;;4.87;4.03;;;6.90;99.90;;;;;;5038503;28;20520;-60
2021/05/20 01:41:58;;;;;;;5.07;4.17;;;6.90;99.90;;;;;;5038673;28;20445;-60
2021/05/20 01:44:24;;;;;;;5.50;3.97;;;6.90;99.90;;;;;;5039498;28;20524;-59
2021/05/20 01:46:49;;;;;;;3.57;3.27;;;6.90;99.90;;;;;;5040216;28;20264;-60
2021/05/20 01:49:15;;;;;;;4.10;3.70;;;6.90;99.90;;;;;;5036157;28;20201;-60
2021/05/20 01:51:41;;;;;;;4.97;3.90;;;6.90;99.90;;;;;;5022143;28;20513;-60
2021/05/20 01:54:07;;;;;;;5.53;4.00;;;6.90;99.90;;;;;;5037112;28;20183;-60
2021/05/20 01:56:36;;;;;;;7.57;4.37;;;6.90;99.90;;;;;;5038812;28;20459;-60
2021/05/20 01:59:04;;;;;;;6.03;3.80;;;6.90;99.90;;;;;;5038198;28;21247;-60
2021/05/20 02:01:30;;;;;;;4.40;3.97;;;6.90;99.90;;;;;;5038539;28;20433;-60
2021/05/20 02:03:56;;;;;;;5.13;3.73;;;6.90;99.90;;;;;;5025518;28;20524;-60
2021/05/20 02:06:21;;;;;;;3.80;3.37;;;7.00;99.90;;;;;;5040588;28;20260;-60
2021/05/20 02:08:47;;;;;;;22.17;4.10;;;7.00;99.90;;;;;;5020536;28;20179;-60
2021/05/20 02:11:13;;;;;;;6.33;4.10;;;7.00;99.90;;;;;;5039625;28;20190;-60
2021/05/20 02:13:38;;;;;;;4.70;3.67;;;7.00;99.90;;;;;;5018911;28;20191;-60
2021/05/20 02:16:05;;;;;;;4.27;3.80;;;7.00;99.90;;;;;;5040085;28;21791;-60
2021/05/20 02:18:32;;;;;;;4.37;3.87;;;6.90;99.90;;;;;;5016666;28;20206;-61
2021/05/20 02:20:57;;;;;;;4.73;4.20;;;6.90;99.90;;;;;;5035071;28;21021;-60
2021/05/20 02:23:23;;;;;;;7.13;3.80;;;6.90;99.90;;;;;;5036962;28;20520;-60
2021/05/20 02:25:49;;;;;;;5.90;3.90;;;6.90;99.90;;;;;;5019183;28;20199;-60
2021/05/20 02:28:15;;;;;;;4.40;3.57;;;6.90;99.90;;;;;;5041142;28;20201;-60
2021/05/20 02:30:41;;;;;;;4.30;3.80;;;6.90;99.90;;;;;;5038488;28;20639;-59
2021/05/20 02:33:07;;;;;;;4.27;3.77;;;6.90;99.90;;;;;;5039801;28;20438;-59
2021/05/20 02:35:33;;;;;;;5.30;4.10;;;6.90;99.90;;;;;;5030769;28;20219;-60
2021/05/20 02:37:58;;;;;;;4.83;3.87;;;6.90;99.90;;;;;;5023291;28;20217;-60
2021/05/20 02:40:24;;;;;;;6.33;4.20;;;6.90;99.90;;;;;;5023148;28;20187;-59
2021/05/20 02:42:50;;;;;;;4.67;3.73;;;6.90;99.90;;;;;;5021174;28;20180;-60
2021/05/20 02:45:19;;;;;;;6.87;4.70;;;6.90;99.90;;;;;;5020149;28;20199;-59
2021/05/20 02:47:45;;;;;;;5.80;4.37;;;6.90;99.90;;;;;;5018411;28;20175;-60
2021/05/20 02:50:12;;;;;;;12.10;3.80;;;6.90;99.90;;;;;;5033713;28;20487;-59
2021/05/20 02:52:38;;;;;;;5.07;3.60;;;6.90;99.90;;;;;;5022244;28;20631;-60
2021/05/20 02:55:06;;;;;;;4.80;4.00;;;6.90;99.90;;;;;;5037885;28;20449;-59
2021/05/20 02:57:33;;;;;;;5.80;4.53;;;6.90;99.90;;;;;;5038112;28;20914;-59
2021/05/20 02:59:58;;;;;;;4.50;4.10;;;6.90;99.90;;;;;;5037838;28;21020;-59
2021/05/20 03:02:24;;;;;;;4.40;3.47;;;6.90;99.90;;;;;;5036541;28;20457;-59
2021/05/20 03:04:51;;;;;;;2.20;1.80;;;6.90;99.90;;;;;;5031868;28;20175;-60
2021/05/20 03:07:17;;;;;;;2.00;1.50;;;6.90;99.90;;;;;;5037126;28;20171;-60
2021/05/20 03:09:43;;;;;;;3.13;1.87;;;6.90;99.90;;;;;;5034793;28;20935;-59
2021/05/20 03:12:11;;;;;;;1.67;1.57;;;6.90;99.90;;;;;;5036249;28;20450;-60
2021/05/20 03:14:37;;;;;;;2.20;2.00;;;6.90;99.90;;;;;;5033738;28;20176;-60
2021/05/20 03:17:09;;;;;;;4.70;2.20;;;6.90;99.90;;;;;;5031885;28;20824;-60
2021/05/20 03:19:35;;;;;;;2.73;2.00;;;6.90;99.90;;;;;;5033524;28;20203;-60
2021/05/20 03:22:01;;;;;;;2.57;2.13;;;6.90;99.90;;;;;;5031830;28;20432;-60
2021/05/20 03:24:26;;;;;;;8.43;2.90;;;6.80;99.90;;;;;;5033068;28;20175;-60
2021/05/20 03:26:52;;;;;;;5.70;4.00;;;6.80;99.90;;;;;;5040719;28;20561;-60
2021/05/20 03:29:17;;;;;;;5.63;4.20;;;6.80;99.90;;;;;;5033725;28;20172;-61
2021/05/20 03:31:44;;;;;;;5.73;4.47;;;6.90;99.90;;;;;;5018473;28;20179;-60
2021/05/20 03:34:10;;;;;;;7.63;5.10;;;6.90;99.90;;;;;;5040745;28;20588;-61
2021/05/20 03:36:35;;;;;;;7.50;4.87;;;6.90;99.90;;;;;;5025009;28;21020;-59
2021/05/20 03:39:01;;;;;;;8.10;4.57;;;7.00;99.90;;;;;;5041320;28;20206;-60
2021/05/20 03:41:27;;;;;;;5.53;4.57;;;7.00;99.90;;;;;;5038630;28;20250;-60
2021/05/20 03:43:53;;;;;;;7.30;5.10;;;7.00;99.90;;;;;;5021661;28;20426;-66
2021/05/20 03:46:19;;;;;;;7.13;4.50;;;7.00;99.90;;;;;;5043781;28;20714;-60
2021/05/20 03:48:45;;;;;;;6.43;4.60;;;7.00;99.90;;;;;;5020505;28;20690;-59
2021/05/20 03:51:10;;;;;;;6.30;4.20;;;7.00;99.90;;;;;;5034960;28;20434;-59
2021/05/20 03:53:36;;;;;;;6.13;4.60;;;7.00;99.90;;;;;;5033989;28;20176;-59
2021/05/20 03:56:02;;;;;;;5.60;4.70;;;7.00;99.90;;;;;;5039926;28;20230;-60
2021/05/20 03:58:28;;;;;;;5.63;4.00;;;7.00;99.90;;;;;;5044419;28;20195;-60
2021/05/20 04:00:54;;;;;;;4.37;3.90;;;7.00;99.90;;;;;;5018363;28;20571;-60
2021/05/20 04:03:26;;;;;;;5.83;3.97;;;7.00;99.90;;;;;;5039989;28;21089;-60
2021/05/20 04:05:53;;;;;;;4.47;3.67;;;7.00;99.90;;;;;;5021856;28;20210;-59
2021/05/20 04:08:19;;;;;;;4.87;2.80;;;7.00;99.90;;;;;;5037943;28;20521;-58
2021/05/20 04:10:45;;;;;;;2.60;2.40;;;7.00;99.90;;;;;;5036254;28;20434;-60
2021/05/20 04:13:11;;;;;;;5.60;2.90;;;7.00;99.90;;;;;;5038800;28;20815;-59
2021/05/20 04:15:37;;;;;;;4.47;3.07;;;6.90;99.90;;;;;;5040504;28;20256;-60
2021/05/20 04:18:02;;;;;;;3.83;3.00;;;6.90;99.90;;;;;;5038821;28;20248;-60
2021/05/20 04:20:28;;;;;;;5.37;3.33;;;6.90;99.90;;;;;;5037278;28;20273;-60
2021/05/20 04:22:54;;;;;;;4.37;2.93;;;6.90;99.90;;;;;;5014182;28;20182;-60
2021/05/20 04:25:19;;;;;;;24.93;11.50;;;7.00;99.90;;;;;;5020728;28;20525;-60
2021/05/20 04:27:45;;;;;;;3.80;3.00;;;6.90;99.90;;;;;;5038811;28;20179;-60
2021/05/20 04:30:11;;;;;;;4.30;2.90;;;7.00;99.90;;;;;;5019680;28;20218;-60
2021/05/20 04:32:37;;;;;;;2.90;2.43;;;7.00;99.90;;;;;;5040672;28;20554;-59
2021/05/20 04:35:03;;;;;;;2.37;2.17;;;7.00;99.90;;;;;;5037142;28;20468;-59
2021/05/20 04:37:28;;;;;;;2.10;2.00;;;7.00;99.90;;;;;;5034678;28;20176;-58
2021/05/20 04:39:54;;;;;;;2.40;1.70;;;7.00;99.90;;;;;;5034431;28;20989;-58
2021/05/20 04:42:20;;;;;;;2.67;1.90;;;7.00;99.90;;;;;;5016598;28;20185;-58
2021/05/20 04:44:45;;;;;;;2.47;2.30;;;7.00;99.90;;;;;;5035569;28;20171;-58
2021/05/20 04:47:11;;;;;;;2.90;2.50;;;7.10;99.90;;;;;;5040697;28;20176;-59
2021/05/20 04:49:36;;;;;;;3.03;2.27;;;7.10;99.90;;;;;;5031665;28;20640;-60
2021/05/20 04:52:03;;;;;;;2.20;1.97;;;7.10;99.90;;;;;;5016506;28;21591;-60
2021/05/20 04:54:28;;;;;;;4.73;1.90;;;7.10;99.90;;;;;;5034140;28;20180;-61
2021/05/20 04:56:54;;;;;;;1.93;1.47;;;7.20;99.90;;;;;;5029644;28;20458;-61
2021/05/20 04:59:20;;;;;;;1.50;1.40;;;7.20;99.90;;;;;;5033012;28;20199;-60
2021/05/20 05:01:45;;;;;;;1.60;1.50;;;7.20;99.90;;;;;;5042072;28;20218;-57
2021/05/20 05:04:11;;;;;;;2.60;1.30;;;7.20;99.90;;;;;;5038827;28;20168;-60
2021/05/20 05:06:37;;;;;;;1.40;1.30;;;7.20;99.90;;;;;;5031779;28;20188;-60
2021/05/20 05:09:03;;;;;;;1.60;1.30;;;7.20;99.90;;;;;;5052832;28;20175;-60
2021/05/20 05:11:28;;;;;;;1.63;1.50;;;7.20;99.90;;;;;;5048167;28;20193;-60
2021/05/20 05:13:54;;;;;;;1.77;1.10;;;7.20;99.90;;;;;;5037840;28;20469;-60
2021/05/20 05:16:20;;;;;;;1.20;1.20;;;7.20;99.90;;;;;;5026793;28;20428;-59
2021/05/20 05:18:45;;;;;;;1.20;1.10;;;7.20;99.90;;;;;;5018316;28;20322;-60
2021/05/20 05:21:11;;;;;;;1.40;1.30;;;7.20;99.90;;;;;;5048804;28;20175;-60
2021/05/20 05:23:36;;;;;;;1.00;1.00;;;7.20;99.90;;;;;;5047269;28;20217;-60
2021/05/20 05:26:03;;;;;;;1.27;1.17;;;7.20;99.90;;;;;;5037216;28;20191;-60
2021/05/20 05:28:28;;;;;;;2.50;1.10;;;7.20;99.90;;;;;;5030585;28;20245;-60
2021/05/20 05:30:54;;;;;;;1.30;1.20;;;7.20;99.90;;;;;;5037523;28;20473;-59
2021/05/20 05:33:22;;;;;;;1.53;1.40;;;7.30;99.90;;;;;;5035023;28;20182;-60
2021/05/20 05:35:48;;;;;;;1.40;1.30;;;7.30;99.90;;;;;;5033361;28;20207;-60
2021/05/20 05:38:14;;;;;;;1.30;1.20;;;7.30;99.90;;;;;;5044453;28;20827;-60
2021/05/20 05:40:40;;;;;;;1.07;1.07;;;7.30;99.90;;;;;;5043191;28;20429;-60
2021/05/20 05:43:06;;;;;;;1.77;1.13;;;7.30;99.90;;;;;;5036771;28;20194;-59
2021/05/20 05:45:31;;;;;;;1.37;1.27;;;7.30;99.90;;;;;;5038765;28;20681;-60
2021/05/20 05:47:57;;;;;;;1.97;1.77;;;7.20;99.90;;;;;;5033121;28;20194;-60
2021/05/20 05:50:23;;;;;;;1.40;1.33;;;7.30;99.90;;;;;;5019985;28;20172;-60
2021/05/20 05:52:48;;;;;;;2.10;1.90;;;7.30;99.90;;;;;;5015328;28;20171;-58
2021/05/20 05:55:14;;;;;;;2.50;2.00;;;7.30;99.90;;;;;;5034996;28;20229;-60
2021/05/20 05:57:40;;;;;;;2.20;2.00;;;7.40;99.90;;;;;;5044018;28;20647;-61
2021/05/20 06:00:06;;;;;;;2.40;2.20;;;7.60;99.90;;;;;;5036003;28;20675;-61
2021/05/20 06:02:33;;;;;;;2.13;2.00;;;7.70;99.90;;;;;;5043823;28;20190;-59
2021/05/20 06:05:00;;;;;;;2.00;1.90;;;7.90;99.90;;;;;;5034589;28;21366;-61
2021/05/20 06:07:26;;;;;;;2.57;2.37;;;8.00;99.90;;;;;;5037432;28;20452;-61
2021/05/20 06:09:51;;;;;;;8.20;2.30;;;8.10;99.90;;;;;;5042825;28;20429;-59
2021/05/20 06:12:17;;;;;;;2.90;1.87;;;8.20;99.90;;;;;;5046070;28;20426;-61
2021/05/20 06:14:43;;;;;;;1.93;1.77;;;8.10;99.90;;;;;;5039463;28;20444;-61
2021/05/20 06:17:09;;;;;;;2.57;2.17;;;8.10;99.90;;;;;;5041628;28;20187;-60
2021/05/20 06:19:34;;;;;;;2.00;1.90;;;8.00;99.90;;;;;;5042639;28;20198;-60
2021/05/20 06:22:00;;;;;;;2.20;2.00;;;8.00;99.90;;;;;;5043413;28;20532;-60
2021/05/20 06:24:28;;;;;;;1.90;1.80;;;8.10;99.90;;;;;;5031425;28;20175;-61
2021/05/20 06:26:54;;;;;;;1.80;1.70;;;8.10;99.90;;;;;;5040870;28;20203;-61
2021/05/20 06:29:19;;;;;;;1.33;1.27;;;8.20;99.90;;;;;;5023981;28;20956;-59
2021/05/20 06:31:45;;;;;;;2.17;1.90;;;8.20;99.90;;;;;;5042812;28;20193;-59
2021/05/20 06:34:11;;;;;;;1.67;1.57;;;8.20;99.90;;;;;;5022928;28;20175;-60
2021/05/20 06:36:37;;;;;;;1.40;1.30;;;8.20;99.90;;;;;;5012966;28;20212;-60
2021/05/20 06:39:08;;;;;;;1.20;1.10;;;8.20;99.90;;;;;;5029134;28;20191;-61
2021/05/20 06:41:33;;;;;;;1.37;1.20;;;8.30;99.90;;;;;;5016809;28;20536;-60
2021/05/20 06:43:59;;;;;;;1.40;1.30;;;8.30;99.90;;;;;;5017662;28;20963;-60
2021/05/20 06:46:25;;;;;;;2.70;1.40;;;8.40;99.90;;;;;;5017235;28;20292;-60
2021/05/20 06:48:51;;;;;;;1.20;1.20;;;8.50;99.90;;;;;;5033899;28;20190;-60
2021/05/20 06:51:16;;;;;;;3.17;1.40;;;8.50;99.90;;;;;;5023037;28;20190;-61
2021/05/20 06:53:42;;;;;;;1.23;1.13;;;8.60;99.90;;;;;;5037895;28;20266;-60
2021/05/20 06:56:16;;;;;;;1.20;1.20;;;8.70;99.90;;;;;;5014148;28;20546;-61
2021/05/20 07:01:25;;;;;;;1.50;1.40;;;8.80;99.90;;;;;;5036318;28;20430;-61
2021/05/20 07:03:54;;;;;;;1.30;1.20;;;8.70;99.90;;;;;;5018580;28;20429;-60
2021/05/20 07:06:19;;;;;;;1.30;1.30;;;8.80;99.90;;;;;;5034053;28;20272;-60
2021/05/20 07:08:45;;;;;;;1.80;1.40;;;8.80;99.90;;;;;;5038841;28;20984;-60
2021/05/20 07:11:11;;;;;;;1.70;1.53;;;8.90;99.90;;;;;;5037716;28;20369;-61
2021/05/20 07:13:37;;;;;;;2.60;1.57;;;8.90;99.90;;;;;;5037077;28;20218;-60
2021/05/20 07:16:03;;;;;;;1.73;1.60;;;9.00;99.90;;;;;;5046208;28;20202;-60
2021/05/20 07:18:28;;;;;;;1.13;1.13;;;9.10;99.90;;;;;;5040707;28;22088;-60
2021/05/20 07:20:54;;;;;;;1.33;1.23;;;9.20;99.90;;;;;;5049207;28;20425;-59
2021/05/20 07:23:20;;;;;;;1.80;1.23;;;9.40;99.90;;;;;;5045264;28;20178;-61
2021/05/20 07:25:47;;;;;;;5.70;1.40;;;9.70;99.90;;;;;;5040920;28;20191;-61
2021/05/20 07:28:12;;;;;;;1.30;1.20;;;9.80;99.90;;;;;;5045072;28;20441;-61
2021/05/20 07:30:39;;;;;;;1.07;1.03;;;10.00;99.90;;;;;;5042366;28;20969;-61
2021/05/20 07:33:05;;;;;;;2.67;1.10;;;10.00;99.90;;;;;;5042747;28;20463;-61
2021/05/20 07:35:31;;;;;;;1.30;1.20;;;10.00;99.90;;;;;;5021070;28;20466;-61
2021/05/20 07:37:57;;;;;;;1.40;1.30;;;10.00;99.90;;;;;;5036267;28;20433;-61
2021/05/20 07:40:22;;;;;;;1.20;1.10;;;9.90;99.90;;;;;;5037806;28;20800;-61
2021/05/20 07:42:50;;;;;;;1.23;1.13;;;9.80;99.90;;;;;;5045739;28;20197;-61
2021/05/20 07:45:16;;;;;;;1.47;1.37;;;9.80;99.90;;;;;;5044349;28;21409;-62
2021/05/20 07:47:43;;;;;;;2.40;2.13;;;9.70;99.90;;;;;;5042486;28;20937;-61
2021/05/20 07:50:10;;;;;;;1.50;1.40;;;9.60;99.90;;;;;;5028787;28;21936;-61
2021/05/20 07:52:36;;;;;;;3.07;1.03;;;9.50;99.90;;;;;;5043819;28;20426;-61
2021/05/20 07:55:03;;;;;;;1.20;1.20;;;9.40;99.90;;;;;;5016805;28;20522;-61
2021/05/20 07:57:29;;;;;;;1.90;1.20;;;9.30;99.90;;;;;;5038475;28;20167;-61
2021/05/20 07:59:54;;;;;;;8.23;1.30;;;9.30;99.90;;;;;;5036723;28;20488;-61
2021/05/20 08:05:09;;;;;;;2.00;1.50;;;9.20;99.90;;;;;;5037217;28;20167;-59
2021/05/20 08:08:45;;;;;;;2.30;1.00;;;9.20;99.90;;;;;;5037183;28;20521;-61
2021/05/20 08:13:07;;;;;;;1.07;1.07;;;9.20;99.90;;;;;;5035295;28;20501;-61
2021/05/20 08:15:33;;;;;;;1.30;1.20;;;9.30;99.90;;;;;;5036882;28;20448;-61
2021/05/20 08:17:59;;;;;;;1.20;1.10;;;9.40;99.90;;;;;;5042650;28;20249;-61
2021/05/20 08:20:25;;;;;;;1.00;1.00;;;9.40;99.90;;;;;;5031663;28;20438;-60
2021/05/20 08:22:50;;;;;;;1.17;1.17;;;9.50;99.90;;;;;;5018856;28;20175;-61
2021/05/20 08:25:16;;;;;;;1.57;0.97;;;9.60;99.90;;;;;;5033126;28;20492;-60
2021/05/20 08:27:42;;;;;;;1.10;1.10;;;9.70;99.90;;;;;;5022244;28;20172;-61
2021/05/20 08:30:08;;;;;;;1.20;1.10;;;9.80;99.90;;;;;;5033878;28;20184;-61
2021/05/20 08:32:35;;;;;;;1.27;1.03;;;9.80;99.90;;;;;;5026879;28;20188;-61
2021/05/20 08:35:01;;;;;;;1.50;1.40;;;9.80;99.90;;;;;;5038863;28;20469;-61
2021/05/20 08:37:28;;;;;;;2.10;1.20;;;9.70;99.90;;;;;;5039998;28;20545;-61
2021/05/20 08:39:54;;;;;;;1.10;1.10;;;9.60;99.90;;;;;;5048244;28;20222;-60
2021/05/20 08:42:20;;;;;;;2.40;1.20;;;9.60;99.90;;;;;;5035245;28;20503;-60
2021/05/20 08:44:45;;;;;;;1.77;1.30;;;9.50;99.90;;;;;;5039816;28;20434;-61
2021/05/20 08:47:11;;;;;;;1.50;1.27;;;9.50;99.90;;;;;;5024487;28;20177;-61
2021/05/20 08:49:37;;;;;;;1.40;1.30;;;9.50;99.90;;;;;;5041054;28;20176;-60
2021/05/20 08:52:04;;;;;;;1.73;1.33;;;9.60;99.90;;;;;;5029546;28;20178;-61
2021/05/20 08:54:30;;;;;;;1.40;1.30;;;9.50;99.90;;;;;;5024756;28;20950;-60
2021/05/20 08:56:56;;;;;;;1.50;1.40;;;9.40;99.90;;;;;;5022793;28;20460;-61
2021/05/20 08:59:23;;;;;;;1.40;1.00;;;9.40;99.90;;;;;;5041662;28;20198;-60
2021/05/20 09:01:51;;;;;;;1.53;1.40;;;9.30;99.90;;;;;;5019734;28;20175;-60
2021/05/20 09:04:18;;;;;;;7.43;1.70;;;9.20;99.90;;;;;;5026520;28;20982;-61
2021/05/20 09:06:53;;;;;;;1.60;1.50;;;9.10;99.90;;;;;;5036167;28;20449;-60
2021/05/20 09:09:32;;;;;;;1.80;1.70;;;9.20;99.90;;;;;;5035588;28;20562;-60
2021/05/20 09:11:58;;;;;;;1.60;1.50;;;9.20;99.90;;;;;;5039403;28;20434;-62
2021/05/20 09:14:38;;;;;;;1.40;1.30;;;9.30;99.90;;;;;;5023028;28;20508;-61
2021/05/20 09:17:17;;;;;;;1.80;1.70;;;9.40;99.90;;;;;;5038044;28;20438;-61
2021/05/20 09:19:47;;;;;;;2.27;2.07;;;9.70;99.90;;;;;;5014640;28;20485;-61
2021/05/20 09:22:14;;;;;;;3.47;2.10;;;10.00;99.90;;;;;;5044030;28;20426;-60
2021/05/20 09:24:53;;;;;;;1.27;1.17;;;10.10;99.80;;;;;;5038609;28;20422;-59
2021/05/20 09:27:23;;;;;;;1.53;1.27;;;10.10;99.20;;;;;;5034024;28;20455;-61
2021/05/20 09:30:17;;;;;;;1.47;1.37;;;10.20;99.90;;;;;;5038728;28;20887;-60
2021/05/20 09:32:47;;;;;;;1.40;1.30;;;10.10;99.80;;;;;;5037102;28;20522;-63
2021/05/20 09:35:14;;;;;;;1.40;1.30;;;10.10;99.10;;;;;;5040991;28;21151;-61
2021/05/20 09:37:55;;;;;;;1.63;1.20;;;9.90;99.90;;;;;;5044858;28;20469;-60
2021/05/20 09:40:27;;;;;;;1.40;1.30;;;9.80;99.90;;;;;;5032246;28;20477;-59
2021/05/20 09:42:53;;;;;;;1.63;1.10;;;9.90;99.90;;;;;;5022866;28;20436;-57
2021/05/20 09:45:21;;;;;;;1.50;1.40;;;10.00;99.70;;;;;;5037271;28;20862;-60
2021/05/20 09:47:48;;;;;;;1.20;1.10;;;10.00;99.10;;;;;;5042626;28;20433;-60
2021/05/20 09:50:21;;;;;;;1.63;1.10;;;10.30;99.60;;;;;;5046017;28;20672;-60
2021/05/20 09:52:48;;;;;;;1.40;1.30;;;10.60;99.60;;;;;;5039049;28;20894;-60
2021/05/20 09:55:25;;;;;;;1.20;1.10;;;10.90;99.40;;;;;;5040441;28;20545;-60
2021/05/20 09:57:55;;;;;;;1.20;1.03;;;11.20;98.50;;;;;;5022421;28;20460;-60
2021/05/20 10:00:23;;;;;;;2.70;0.90;;;11.50;98.00;;;;;;5044156;28;20433;-60
2021/05/20 10:03:01;;;;;;;1.03;1.00;;;11.70;93.00;;;;;;5037555;28;20422;-61
2021/05/20 10:05:32;;;;;;;1.27;1.27;;;11.90;92.00;;;;;;5014672;28;20445;-60
2021/05/20 10:08:00;;;;;;;1.20;1.10;;;11.90;94.30;;;;;;5049173;28;20456;-60
2021/05/20 10:10:27;;;;;;;1.17;1.10;;;12.00;93.90;;;;;;5027303;28;20422;-60
2021/05/20 10:12:53;;;;;;;1.37;1.20;;;12.20;93.10;;;;;;5028628;28;20968;-61
2021/05/20 10:15:21;;;;;;;1.10;1.00;;;12.30;92.60;;;;;;5016625;28;20453;-60
2021/05/20 10:17:48;;;;;;;1.20;1.10;;;12.50;92.50;;;;;;5038923;28;20436;-60
2021/05/20 10:20:20;;;;;;;1.20;1.10;;;12.70;92.10;;;;;;5028535;28;20461;-60
2021/05/20 10:22:46;;;;;;;2.50;1.33;;;12.90;89.20;;;;;;5033277;28;20844;-61
2021/05/20 10:25:13;;;;;;;1.87;1.20;;;12.90;88.00;;;;;;5023935;28;20450;-60
2021/05/20 10:27:40;;;;;;;1.40;1.30;;;12.70;89.50;;;;;;5042842;28;20433;-60
2021/05/20 10:30:08;;;;;;;6.43;1.07;;;12.40;88.90;;;;;;5033327;28;20438;-60
2021/05/20 10:32:36;;;;;;;1.40;1.30;;;12.10;91.50;;;;;;5045613;28;20772;-60
2021/05/20 10:35:07;;;;;;;1.37;1.30;;;11.80;92.40;;;;;;5045930;28;20527;-61
2021/05/20 10:37:40;;;;;;;2.00;1.30;;;11.60;94.40;;;;;;5044243;28;20688;-60
2021/05/20 10:40:24;;;;;;;1.50;1.40;;;11.50;95.30;;;;;;5028098;28;20457;-61
2021/05/20 10:43:14;;;;;;;1.43;1.33;;;11.50;95.40;;;;;;5035959;28;20471;-58
2021/05/20 10:45:59;;;;;;;2.60;1.30;;;11.80;94.90;;;;;;5038054;28;20532;-60
2021/05/20 10:48:26;;;;;;;1.50;1.40;;;12.10;93.30;;;;;;5046431;28;20422;-60
2021/05/20 10:50:55;;;;;;;1.33;1.20;;;12.40;94.20;;;;;;5029064;28;20429;-60
2021/05/20 10:53:39;;;;;;;1.60;1.50;;;12.80;93.80;;;;;;5044430;28;20425;-61
2021/05/20 10:56:29;;;;;;;1.57;1.33;;;13.40;91.80;;;;;;5045410;28;20445;-60
2021/05/20 10:58:57;;;;;;;1.77;1.40;;;13.70;82.80;;;;;;5038429;28;20524;-60
2021/05/20 11:01:27;;;;;;;4.77;1.20;;;13.70;79.80;;;;;;5030044;28;20432;-60
2021/05/20 11:04:06;;;;;;;1.00;1.00;;;13.60;80.70;;;;;;5024168;28;20518;-60
2021/05/20 11:06:38;;;;;;;1.20;1.10;;;13.80;89.00;;;;;;5027078;28;20448;-59
2021/05/20 11:09:04;;;;;;;1.00;1.00;;;14.20;83.70;;;;;;5042236;28;20536;-59
2021/05/20 11:11:30;;;;;;;1.73;1.10;;;14.60;74.90;;;;;;5039332;28;21433;-60
2021/05/20 11:13:57;;;;;;;1.13;1.13;;;14.80;75.20;;;;;;5038011;28;20444;-60
2021/05/20 11:16:30;;;;;;;1.30;1.20;;;14.80;70.10;;;;;;5020415;28;20688;-60
2021/05/20 11:22:04;;;;;;;1.17;1.17;;;14.10;69.30;;;;;;5031647;28;21340;-60
2021/05/20 11:24:35;;;;;;;1.30;1.20;;;13.70;70.70;;;;;;5026691;28;20421;-61
2021/05/20 11:27:04;;;;;;;2.40;1.47;;;13.40;76.00;;;;;;5020143;28;20469;-60
2021/05/20 11:29:32;;;;;;;1.60;1.50;;;13.10;82.80;;;;;;5044223;28;20423;-58
2021/05/20 11:32:15;;;;;;;1.30;1.20;;;13.10;90.20;;;;;;5034749;28;20836;-59
2021/05/20 11:37:20;;;;;;;1.10;1.00;;;13.10;88.80;;;;;;5040345;28;20449;-61
2021/05/20 11:39:45;;;;;;;1.57;1.47;;;13.10;86.60;;;;;;5038980;28;20449;-61
2021/05/20 11:42:19;;;;;;;1.53;1.43;;;13.10;88.10;;;;;;5047156;28;20430;-59
2021/05/20 11:44:45;;;;;;;1.50;1.40;;;12.90;78.60;;;;;;5040953;28;20174;-61
2021/05/20 11:47:13;;;;;;;1.83;1.30;;;12.70;80.00;;;;;;5042189;28;20431;-61
2021/05/20 11:49:41;;;;;;;1.50;1.40;;;12.60;81.00;;;;;;5044826;28;20190;-59
2021/05/20 11:52:09;;;;;;;2.00;1.20;;;12.50;83.00;;;;;;5038380;28;20426;-61
2021/05/20 11:54:36;;;;;;;1.40;1.30;;;12.30;80.00;;;;;;5039838;28;20453;-61
2021/05/20 11:57:06;;;;;;;1.83;1.60;;;12.20;81.10;;;;;;5036269;28;20437;-61
2021/05/20 11:59:37;;;;;;;3.03;1.27;;;12.20;82.00;;;;;;5035936;28;21217;-61
2021/05/20 12:02:05;;;;;;;1.57;1.33;;;12.20;87.10;;;;;;5021178;28;20461;-60
2021/05/20 12:04:32;;;;;;;1.40;1.30;;;12.20;90.00;;;;;;5021273;28;20922;-61
2021/05/20 12:06:59;;;;;;;1.40;1.30;;;12.40;90.60;;;;;;5040549;28;20441;-60
2021/05/20 12:09:24;;;;;;;2.57;2.10;;;12.70;91.80;;;;;;5033605;28;20441;-61
2021/05/20 12:11:50;;;;;;;2.10;1.60;;;13.40;92.80;;;;;;5040617;28;21105;-60
2021/05/20 12:14:32;;;;;;;1.80;1.53;;;14.10;91.70;;;;;;5036069;28;20175;-61
2021/05/20 12:17:01;;;;;;;2.00;1.60;;;14.70;85.10;;;;;;5034638;28;20191;-61
2021/05/20 12:19:28;;;;;;;1.53;1.20;;;15.30;73.50;;;;;;5039862;28;20485;-60
2021/05/20 12:22:08;;;;;;;1.20;1.10;;;15.50;67.30;;;;;;5023096;28;20418;-61
2021/05/20 12:24:42;;;;;;;1.23;1.13;;;15.60;61.80;;;;;;5041169;28;20438;-61
2021/05/20 12:27:17;;;;;;;1.23;1.13;;;15.50;59.40;;;;;;5035487;28;20425;-61
2021/05/20 12:29:45;;;;;;;1.00;1.00;;;15.20;57.10;;;;;;5039003;28;21074;-60
2021/05/20 12:32:28;;;;;;;1.60;1.20;;;14.80;56.40;;;;;;5038714;28;20429;-60
2021/05/20 12:35:08;;;;;;;1.50;1.40;;;14.20;59.90;;;;;;5035142;28;20437;-60
2021/05/20 12:37:40;;;;;;;1.20;0.90;;;13.90;64.50;;;;;;5036037;28;20615;-61
2021/05/20 12:40:25;;;;;;;1.03;1.00;;;13.70;66.60;;;;;;5031596;28;20460;-61
2021/05/20 12:43:02;;;;;;;10.90;1.30;;;13.50;69.40;;;;;;5035346;28;20464;-61
2021/05/20 12:45:29;;;;;;;2.07;1.10;;;13.40;71.10;;;;;;5035008;28;20445;-61
2021/05/20 12:47:55;;;;;;;6.03;1.40;;;13.30;70.80;;;;;;5030597;28;20435;-60
2021/05/20 12:50:36;;;;;;;1.20;1.10;;;13.20;71.60;;;;;;5028049;28;20726;-61
2021/05/20 12:53:03;;;;;;;1.23;1.13;;;13.00;74.70;;;;;;5035501;28;20171;-60
2021/05/20 12:55:38;;;;;;;1.43;1.30;;;12.80;75.60;;;;;;5037317;28;20594;-61
2021/05/20 12:58:06;;;;;;;1.50;1.40;;;12.70;78.10;;;;;;5021591;28;20421;-60
2021/05/20 13:00:55;;;;;;;1.40;1.30;;;12.60;79.70;;;;;;5023636;28;20870;-61
2021/05/20 13:03:22;;;;;;;1.40;1.30;;;12.50;83.70;;;;;;5019651;28;20446;-61
2021/05/20 13:05:53;;;;;;;2.30;1.37;;;12.50;86.10;;;;;;5020962;28;20458;-61
2021/05/20 13:08:30;;;;;;;1.77;1.13;;;12.60;81.40;;;;;;5029820;28;20540;-61
2021/05/20 13:10:57;;;;;;;1.30;1.20;;;12.60;76.10;;;;;;5033040;28;20491;-59